createdAt,value
2018-05-11T00:00:33.499Z,0
2018-05-11T00:01:33.751Z,0
2018-05-11T00:02:33.723Z,0
2018-05-11T00:03:33.190Z,0
2018-05-11T00:04:33.460Z,0
2018-05-11T00:05:33.740Z,0
2018-05-11T00:06:33.448Z,0
2018-05-11T00:07:33.678Z,0
2018-05-11T00:08:33.161Z,0
2018-05-11T00:09:33.680Z,0
2018-05-11T00:10:33.597Z,0
2018-05-11T00:11:33.391Z,0
2018-05-11T00:12:33.402Z,0
2018-05-11T00:13:33.119Z,0
2018-05-11T00:14:33.368Z,0
2018-05-11T00:15:33.635Z,0
2018-05-11T00:16:33.628Z,0
2018-05-11T00:17:33.337Z,0
2018-05-11T00:18:33.338Z,0
2018-05-11T00:19:32.810Z,0
2018-05-11T00:20:33.654Z,0
2018-05-11T00:21:33.063Z,0
2018-05-11T00:22:33.509Z,0
2018-05-11T00:23:33.762Z,0
2018-05-11T00:24:32.773Z,0
2018-05-11T00:25:33.282Z,0
2018-05-11T00:26:33.278Z,0
2018-05-11T00:27:33.520Z,0
2018-05-11T00:28:33.479Z,0
2018-05-11T00:29:33.519Z,0
2018-05-11T00:30:32.984Z,0
2018-05-11T00:31:32.714Z,0
2018-05-11T00:32:33.249Z,0
2018-05-11T00:33:33.514Z,0
2018-05-11T00:34:33.227Z,0
2018-05-11T00:35:33.461Z,0
2018-05-11T00:36:32.936Z,0
2018-05-11T00:37:33.463Z,0
2018-05-11T00:38:33.659Z,0
2018-05-11T00:39:32.914Z,0
2018-05-11T00:40:32.910Z,0
2018-05-11T00:41:32.901Z,0
2018-05-11T00:42:33.413Z,0
2018-05-11T00:43:33.151Z,0
2018-05-11T00:44:32.881Z,0
2018-05-11T00:45:32.866Z,0
2018-05-11T00:46:33.130Z,0
2018-05-11T00:47:32.596Z,0
2018-05-11T00:48:33.103Z,0
2018-05-11T00:49:33.095Z,0
2018-05-11T00:50:32.830Z,0
2018-05-11T00:51:33.090Z,0
2018-05-11T00:52:33.332Z,0
2018-05-11T00:53:33.319Z,0
2018-05-11T00:54:32.813Z,0
2018-05-11T00:55:33.045Z,0
2018-05-11T00:56:32.524Z,0
2018-05-11T00:57:32.766Z,0
2018-05-11T00:58:33.107Z,0
2018-05-11T00:59:33.495Z,0
2018-05-11T01:00:33.225Z,0
2018-05-11T01:01:32.998Z,0
2018-05-11T01:02:32.730Z,0
2018-05-11T01:03:32.730Z,0
2018-05-11T01:04:32.717Z,0
2018-05-11T01:05:32.709Z,0
2018-05-11T01:06:32.963Z,0
2018-05-11T01:07:32.947Z,0
2018-05-11T01:08:32.778Z,0
2018-05-11T01:09:32.418Z,0
2018-05-11T01:10:33.207Z,0
2018-05-11T01:11:32.664Z,0
2018-05-11T01:12:33.388Z,0
2018-05-11T01:13:32.988Z,0
2018-05-11T01:14:32.897Z,0
2018-05-11T01:15:32.888Z,0
2018-05-11T01:16:33.137Z,0
2018-05-11T01:17:32.871Z,0
2018-05-11T01:18:33.120Z,0
2018-05-11T01:19:32.602Z,0
2018-05-11T01:20:32.849Z,0
2018-05-11T01:21:32.851Z,0
2018-05-11T01:22:32.833Z,0
2018-05-11T01:23:33.107Z,0
2018-05-11T01:24:32.561Z,0
2018-05-11T01:25:32.810Z,0
2018-05-11T01:26:32.547Z,0
2018-05-11T01:27:32.534Z,0
2018-05-11T01:28:32.814Z,0
2018-05-11T01:29:32.779Z,0
2018-05-11T01:30:33.044Z,0
2018-05-11T01:31:33.036Z,0
2018-05-11T01:32:33.032Z,0
2018-05-11T01:33:32.746Z,0
2018-05-11T01:34:32.731Z,0
2018-05-11T01:35:32.728Z,0
2018-05-11T01:36:32.978Z,0
2018-05-11T01:37:32.972Z,0
2018-05-11T01:38:32.976Z,0
2018-05-11T01:39:32.987Z,0
2018-05-11T01:40:32.433Z,0
2018-05-11T01:41:32.421Z,0
2018-05-11T01:42:32.683Z,0
2018-05-11T01:43:32.667Z,0
2018-05-11T01:44:32.403Z,0
2018-05-11T01:45:32.904Z,0
2018-05-11T01:46:32.901Z,0
2018-05-11T01:47:32.888Z,0
2018-05-11T01:48:32.892Z,0
2018-05-11T01:49:31.839Z,0
2018-05-11T01:50:32.608Z,0
2018-05-11T01:51:32.636Z,0
2018-05-11T01:52:32.591Z,0
2018-05-11T01:53:32.320Z,0
2018-05-11T01:54:33.078Z,0
2018-05-11T01:55:32.311Z,0
2018-05-11T01:56:32.302Z,0
2018-05-11T01:57:32.566Z,0
2018-05-11T01:58:32.533Z,0
2018-05-11T01:59:32.273Z,0
2018-05-11T02:00:32.261Z,0
2018-05-11T02:01:32.786Z,0
2018-05-11T02:02:32.511Z,0
2018-05-11T02:03:32.777Z,0
2018-05-11T02:04:32.520Z,0
2018-05-11T02:05:32.486Z,0
2018-05-11T02:06:32.744Z,0
2018-05-11T02:07:32.471Z,0
2018-05-11T02:08:32.455Z,0
2018-05-11T02:09:32.719Z,0
2018-05-11T02:10:32.724Z,0
2018-05-11T02:11:32.685Z,0
2018-05-11T02:12:32.165Z,0
2018-05-11T02:13:32.412Z,0
2018-05-11T02:14:32.181Z,0
2018-05-11T02:15:32.154Z,0
2018-05-11T02:16:32.663Z,0
2018-05-11T02:17:32.397Z,0
2018-05-11T02:18:32.701Z,0
2018-05-11T02:19:32.354Z,0
2018-05-11T02:20:32.346Z,0
2018-05-11T02:21:32.596Z,0
2018-05-11T02:22:32.581Z,0
2018-05-11T02:23:32.326Z,0
2018-05-11T02:24:32.586Z,0
2018-05-11T02:25:32.050Z,0
2018-05-11T02:26:32.293Z,0
2018-05-11T02:27:32.039Z,0
2018-05-11T02:28:32.278Z,0
2018-05-11T02:29:32.528Z,0
2018-05-11T02:30:32.262Z,0
2018-05-11T02:31:32.315Z,0
2018-05-11T02:32:32.253Z,0
2018-05-11T02:33:31.980Z,0
2018-05-11T02:34:32.861Z,0
2018-05-11T02:35:32.219Z,0
2018-05-11T02:36:32.230Z,0
2018-05-11T02:37:31.939Z,0
2018-05-11T02:38:32.206Z,0
2018-05-11T02:39:32.196Z,0
2018-05-11T02:40:32.200Z,0
2018-05-11T02:41:32.646Z,0
2018-05-11T02:42:32.155Z,0
2018-05-11T02:43:32.065Z,0
2018-05-11T02:44:32.423Z,0
2018-05-11T02:45:32.348Z,0
2018-05-11T02:46:32.407Z,0
2018-05-11T02:47:31.849Z,0
2018-05-11T02:48:31.855Z,0
2018-05-11T02:49:32.378Z,0
2018-05-11T02:50:32.117Z,0
2018-05-11T02:51:32.029Z,0
2018-05-11T02:52:31.813Z,0
2018-05-11T02:53:32.060Z,0
2018-05-11T02:54:32.065Z,0
2018-05-11T02:55:32.314Z,0
2018-05-11T02:56:32.298Z,0
2018-05-11T02:57:32.299Z,0
2018-05-11T02:58:32.025Z,0
2018-05-11T02:59:32.031Z,0
2018-05-11T03:00:32.254Z,0
2018-05-11T03:01:32.251Z,0
2018-05-11T03:02:32.261Z,0
2018-05-11T03:03:32.271Z,0
2018-05-11T03:04:31.961Z,0
2018-05-11T03:05:32.231Z,0
2018-05-11T03:06:32.235Z,0
2018-05-11T03:07:31.939Z,0
2018-05-11T03:08:32.182Z,0
2018-05-11T03:09:31.951Z,0
2018-05-11T03:10:32.563Z,0
2018-05-11T03:11:31.907Z,0
2018-05-11T03:12:32.156Z,0
2018-05-11T03:13:31.987Z,0
2018-05-11T03:14:32.177Z,0
2018-05-11T03:15:32.125Z,0
2018-05-11T03:16:32.133Z,0
2018-05-11T03:17:31.332Z,0
2018-05-11T03:18:31.478Z,0
2018-05-11T03:19:31.583Z,0
2018-05-11T03:20:31.842Z,0
2018-05-11T03:21:32.071Z,0
2018-05-11T03:22:31.032Z,0
2018-05-11T03:23:31.799Z,0
2018-05-11T03:24:32.071Z,0
2018-05-11T03:25:31.537Z,0
2018-05-11T03:26:32.029Z,0
2018-05-11T03:27:31.501Z,0
2018-05-11T03:28:31.514Z,0
2018-05-11T03:29:31.740Z,0
2018-05-11T03:30:31.733Z,0
2018-05-11T03:31:31.731Z,0
2018-05-11T03:32:31.981Z,0
2018-05-11T03:33:31.970Z,0
2018-05-11T03:34:31.203Z,0
2018-05-11T03:35:31.442Z,0
2018-05-11T03:36:31.425Z,0
2018-05-11T03:37:31.701Z,0
2018-05-11T03:38:31.683Z,0
2018-05-11T03:39:31.157Z,0
2018-05-11T03:40:31.391Z,0
2018-05-11T03:41:32.089Z,0
2018-05-11T03:42:31.902Z,0
2018-05-11T03:43:31.842Z,0
2018-05-11T03:44:31.612Z,0
2018-05-11T03:45:31.343Z,0
2018-05-11T03:46:31.594Z,0
2018-05-11T03:47:31.337Z,5
2018-05-11T03:48:31.576Z,5
2018-05-11T03:49:31.594Z,5
2018-05-11T03:50:31.842Z,5
2018-05-11T03:51:31.552Z,5
2018-05-11T03:52:31.820Z,5
2018-05-11T03:53:31.319Z,5
2018-05-11T03:54:31.753Z,10
2018-05-11T03:55:31.529Z,10
2018-05-11T03:56:31.512Z,10
2018-05-11T03:57:31.779Z,10
2018-05-11T03:58:31.492Z,10
2018-05-11T03:59:31.738Z,10
2018-05-11T04:00:31.476Z,10
2018-05-11T04:01:31.742Z,5
2018-05-11T04:02:31.483Z,5
2018-05-11T04:03:31.734Z,10
2018-05-11T04:04:31.181Z,10
2018-05-11T04:05:31.454Z,5
2018-05-11T04:06:31.431Z,5
2018-05-11T04:07:31.166Z,10
2018-05-11T04:08:31.147Z,10
2018-05-11T04:09:30.884Z,10
2018-05-11T04:10:31.644Z,10
2018-05-11T04:11:31.579Z,10
2018-05-11T04:12:31.635Z,5
2018-05-11T04:13:31.358Z,5
2018-05-11T04:14:31.122Z,5
2018-05-11T04:15:31.597Z,5
2018-05-11T04:16:31.538Z,10
2018-05-11T04:17:31.077Z,5
2018-05-11T04:18:31.320Z,5
2018-05-11T04:19:31.309Z,5
2018-05-11T04:20:30.801Z,10
2018-05-11T04:21:31.034Z,10
2018-05-11T04:22:31.030Z,15
2018-05-11T04:23:31.272Z,15
2018-05-11T04:24:31.521Z,15
2018-05-11T04:25:30.998Z,15
2018-05-11T04:26:30.989Z,15
2018-05-11T04:27:30.982Z,15
2018-05-11T04:28:30.978Z,15
2018-05-11T04:29:31.235Z,20
2018-05-11T04:30:30.438Z,20
2018-05-11T04:31:31.209Z,20
2018-05-11T04:32:31.454Z,25
2018-05-11T04:33:31.186Z,20
2018-05-11T04:34:31.181Z,20
2018-05-11T04:35:31.448Z,25
2018-05-11T04:36:31.163Z,25
2018-05-11T04:37:31.285Z,25
2018-05-11T04:38:30.884Z,25
2018-05-11T04:39:31.400Z,30
2018-05-11T04:40:31.381Z,25
2018-05-11T04:41:31.126Z,25
2018-05-11T04:42:31.134Z,35
2018-05-11T04:43:31.119Z,30
2018-05-11T04:44:31.111Z,30
2018-05-11T04:45:31.531Z,35
2018-05-11T04:46:31.411Z,40
2018-05-11T04:47:31.083Z,40
2018-05-11T04:48:30.541Z,35
2018-05-11T04:49:31.046Z,40
2018-05-11T04:50:31.273Z,40
2018-05-11T04:51:31.028Z,45
2018-05-11T04:52:31.020Z,35
2018-05-11T04:53:31.009Z,35
2018-05-11T04:54:31.006Z,30
2018-05-11T04:55:31.325Z,30
2018-05-11T04:56:31.280Z,30
2018-05-11T04:57:30.981Z,35
2018-05-11T04:58:30.715Z,30
2018-05-11T04:59:30.968Z,30
2018-05-11T05:00:30.951Z,35
2018-05-11T05:01:30.892Z,40
2018-05-11T05:02:30.934Z,35
2018-05-11T05:03:30.928Z,40
2018-05-11T05:04:31.406Z,40
2018-05-11T05:05:30.925Z,45
2018-05-11T05:06:30.639Z,45
2018-05-11T05:07:30.892Z,45
2018-05-11T05:08:31.098Z,50
2018-05-11T05:09:31.151Z,45
2018-05-11T05:10:31.122Z,45
2018-05-11T05:11:30.852Z,50
2018-05-11T05:12:31.543Z,60
2018-05-11T05:13:30.841Z,60
2018-05-11T05:14:30.863Z,65
2018-05-11T05:15:30.816Z,70
2018-05-11T05:16:31.070Z,75
2018-05-11T05:17:31.056Z,75
2018-05-11T05:18:30.555Z,65
2018-05-11T05:19:30.907Z,65
2018-05-11T05:20:31.038Z,60
2018-05-11T05:21:30.792Z,60
2018-05-11T05:22:30.765Z,60
2018-05-11T05:23:30.748Z,65
2018-05-11T05:24:30.754Z,65
2018-05-11T05:25:30.754Z,55
2018-05-11T05:26:30.465Z,60
2018-05-11T05:27:30.736Z,60
2018-05-11T05:28:30.974Z,65
2018-05-11T05:29:31.034Z,65
2018-05-11T05:30:30.966Z,65
2018-05-11T05:31:30.946Z,65
2018-05-11T05:32:30.674Z,65
2018-05-11T05:33:30.921Z,65
2018-05-11T05:34:30.914Z,55
2018-05-11T05:35:30.644Z,55
2018-05-11T05:36:30.893Z,55
2018-05-11T05:37:30.697Z,50
2018-05-11T05:38:31.092Z,55
2018-05-11T05:39:30.872Z,50
2018-05-11T05:40:30.596Z,55
2018-05-11T05:41:30.600Z,65
2018-05-11T05:42:30.085Z,80
2018-05-11T05:43:30.574Z,90
2018-05-11T05:44:30.312Z,80
2018-05-11T05:45:30.832Z,90
2018-05-11T05:46:30.808Z,90
2018-05-11T05:47:30.808Z,85
2018-05-11T05:48:30.528Z,80
2018-05-11T05:49:30.744Z,80
2018-05-11T05:50:29.997Z,100
2018-05-11T05:51:30.776Z,120
2018-05-11T05:52:30.501Z,130
2018-05-11T05:53:30.763Z,125
2018-05-11T05:54:29.964Z,120
2018-05-11T05:55:30.472Z,120
2018-05-11T05:56:30.723Z,120
2018-05-11T05:57:29.945Z,120
2018-05-11T05:58:31.020Z,120
2018-05-11T05:59:30.438Z,125
2018-05-11T06:00:30.706Z,125
2018-05-11T06:01:30.417Z,125
2018-05-11T06:02:31.034Z,115
2018-05-11T06:03:30.423Z,100
2018-05-11T06:04:30.621Z,85
2018-05-11T06:05:30.643Z,75
2018-05-11T06:06:30.633Z,75
2018-05-11T06:07:30.368Z,75
2018-05-11T06:08:30.876Z,75
2018-05-11T06:09:30.615Z,70
2018-05-11T06:10:30.612Z,70
2018-05-11T06:11:30.334Z,65
2018-05-11T06:12:30.325Z,65
2018-05-11T06:13:30.060Z,60
2018-05-11T06:14:30.053Z,60
2018-05-11T06:15:30.084Z,50
2018-05-11T06:16:30.546Z,50
2018-05-11T06:17:30.540Z,50
2018-05-11T06:18:30.277Z,50
2018-05-11T06:19:30.022Z,55
2018-05-11T06:20:30.261Z,75
2018-05-11T06:21:30.249Z,115
2018-05-11T06:22:30.495Z,140
2018-05-11T06:23:30.234Z,135
2018-05-11T06:24:30.484Z,120
2018-05-11T06:25:30.237Z,115
2018-05-11T06:26:30.493Z,110
2018-05-11T06:27:30.206Z,95
2018-05-11T06:28:30.456Z,95
2018-05-11T06:29:30.468Z,105
2018-05-11T06:30:30.434Z,105
2018-05-11T06:31:30.197Z,110
2018-05-11T06:32:30.429Z,120
2018-05-11T06:33:30.176Z,120
2018-05-11T06:34:30.485Z,125
2018-05-11T06:35:30.131Z,110
2018-05-11T06:36:29.607Z,100
2018-05-11T06:37:30.121Z,85
2018-05-11T06:38:30.132Z,85
2018-05-11T06:39:30.363Z,95
2018-05-11T06:40:30.467Z,95
2018-05-11T06:41:30.361Z,95
2018-05-11T06:42:30.343Z,95
2018-05-11T06:43:30.067Z,95
2018-05-11T06:44:30.070Z,90
2018-05-11T06:45:29.797Z,85
2018-05-11T06:46:30.056Z,80
2018-05-11T06:47:30.005Z,80
2018-05-11T06:48:30.323Z,80
2018-05-11T06:49:30.524Z,85
2018-05-11T06:50:29.778Z,85
2018-05-11T06:51:29.485Z,85
2018-05-11T06:52:29.994Z,80
2018-05-11T06:53:30.251Z,80
2018-05-11T06:54:29.978Z,75
2018-05-11T06:55:30.226Z,75
2018-05-11T06:56:30.230Z,70
2018-05-11T06:57:29.942Z,70
2018-05-11T06:58:29.946Z,75
2018-05-11T06:59:29.688Z,80
2018-05-11T07:00:29.955Z,75
2018-05-11T07:01:29.940Z,75
2018-05-11T07:02:29.943Z,75
2018-05-11T07:03:30.179Z,70
2018-05-11T07:04:30.158Z,70
2018-05-11T07:05:29.655Z,75
2018-05-11T07:06:29.889Z,75
2018-05-11T07:07:29.755Z,70
2018-05-11T07:08:30.132Z,70
2018-05-11T07:09:30.150Z,70
2018-05-11T07:10:29.861Z,70
2018-05-11T07:11:29.855Z,70
2018-05-11T07:12:29.860Z,75
2018-05-11T07:13:30.093Z,80
2018-05-11T07:14:29.818Z,90
2018-05-11T07:15:29.817Z,100
2018-05-11T07:16:30.067Z,105
2018-05-11T07:17:29.796Z,110
2018-05-11T07:18:30.050Z,110
2018-05-11T07:19:30.511Z,100
2018-05-11T07:20:30.031Z,110
2018-05-11T07:21:29.508Z,130
2018-05-11T07:22:29.839Z,160
2018-05-11T07:23:29.768Z,165
2018-05-11T07:24:29.995Z,205
2018-05-11T07:25:29.734Z,235
2018-05-11T07:26:29.472Z,245
2018-05-11T07:27:29.976Z,215
2018-05-11T07:28:29.725Z,195
2018-05-11T07:29:29.700Z,190
2018-05-11T07:30:29.953Z,175
2018-05-11T07:31:29.944Z,155
2018-05-11T07:32:29.419Z,130
2018-05-11T07:33:29.694Z,115
2018-05-11T07:34:29.684Z,120
2018-05-11T07:35:29.739Z,125
2018-05-11T07:36:29.643Z,135
2018-05-11T07:37:29.638Z,140
2018-05-11T07:38:29.633Z,140
2018-05-11T07:39:29.625Z,140
2018-05-11T07:40:28.844Z,135
2018-05-11T07:41:29.352Z,140
2018-05-11T07:42:29.879Z,150
2018-05-11T07:43:30.601Z,150
2018-05-11T07:44:29.850Z,160
2018-05-11T07:45:29.594Z,170
2018-05-11T07:46:29.315Z,185
2018-05-11T07:47:29.815Z,185
2018-05-11T07:48:29.819Z,160
2018-05-11T07:49:29.563Z,145
2018-05-11T07:50:29.966Z,165
2018-05-11T07:51:29.912Z,175
2018-05-11T07:52:29.526Z,180
2018-05-11T07:53:29.514Z,195
2018-05-11T07:54:29.506Z,195
2018-05-11T07:55:29.236Z,185
2018-05-11T07:56:29.495Z,190
2018-05-11T07:57:29.745Z,195
2018-05-11T07:58:29.219Z,175
2018-05-11T07:59:28.948Z,170
2018-05-11T08:00:29.462Z,165
2018-05-11T08:01:29.712Z,160
2018-05-11T08:02:29.761Z,165
2018-05-11T08:03:29.448Z,175
2018-05-11T08:04:29.234Z,170
2018-05-11T08:05:29.421Z,180
2018-05-11T08:06:29.689Z,210
2018-05-11T08:07:29.407Z,230
2018-05-11T08:08:28.883Z,220
2018-05-11T08:09:29.134Z,210
2018-05-11T08:10:29.129Z,210
2018-05-11T08:11:29.576Z,225
2018-05-11T08:12:29.114Z,245
2018-05-11T08:13:29.360Z,260
2018-05-11T08:14:29.648Z,280
2018-05-11T08:15:29.599Z,310
2018-05-11T08:16:29.082Z,370
2018-05-11T08:17:29.332Z,375
2018-05-11T08:18:28.833Z,410
2018-05-11T08:19:29.578Z,400
2018-05-11T08:20:29.303Z,325
2018-05-11T08:21:29.666Z,285
2018-05-11T08:22:29.036Z,300
2018-05-11T08:23:29.544Z,305
2018-05-11T08:24:29.283Z,305
2018-05-11T08:25:29.321Z,305
2018-05-11T08:26:29.285Z,300
2018-05-11T08:27:29.013Z,310
2018-05-11T08:28:29.248Z,335
2018-05-11T08:29:29.502Z,340
2018-05-11T08:30:29.561Z,315
2018-05-11T08:31:29.231Z,300
2018-05-11T08:32:29.315Z,295
2018-05-11T08:33:28.995Z,280
2018-05-11T08:34:28.957Z,270
2018-05-11T08:35:29.465Z,260
2018-05-11T08:36:29.673Z,250
2018-05-11T08:37:28.936Z,225
2018-05-11T08:38:29.206Z,190
2018-05-11T08:39:29.456Z,190
2018-05-11T08:40:28.917Z,185
2018-05-11T08:41:28.908Z,200
2018-05-11T08:42:29.168Z,260
2018-05-11T08:43:28.908Z,280
2018-05-11T08:44:29.420Z,305
2018-05-11T08:45:29.152Z,320
2018-05-11T08:46:29.656Z,335
2018-05-11T08:47:29.380Z,390
2018-05-11T08:48:29.123Z,430
2018-05-11T08:49:29.121Z,475
2018-05-11T08:50:28.595Z,520
2018-05-11T08:51:29.095Z,535
2018-05-11T08:52:29.376Z,495
2018-05-11T08:53:29.108Z,410
2018-05-11T08:54:28.829Z,405
2018-05-11T08:55:28.816Z,445
2018-05-11T08:56:29.062Z,490
2018-05-11T08:57:29.483Z,440
2018-05-11T08:58:28.939Z,425
2018-05-11T08:59:28.832Z,460
2018-05-11T09:00:29.301Z,480
2018-05-11T09:01:29.520Z,475
2018-05-11T09:02:29.303Z,465
2018-05-11T09:03:29.026Z,445
2018-05-11T09:04:28.506Z,440
2018-05-11T09:05:29.274Z,445
2018-05-11T09:06:28.527Z,445
2018-05-11T09:07:28.799Z,460
2018-05-11T09:08:29.264Z,455
2018-05-11T09:09:29.008Z,465
2018-05-11T09:10:29.253Z,490
2018-05-11T09:11:28.724Z,505
2018-05-11T09:12:28.729Z,505
2018-05-11T09:13:29.242Z,510
2018-05-11T09:14:29.079Z,520
2018-05-11T09:15:28.964Z,515
2018-05-11T09:16:28.967Z,495
2018-05-11T09:17:28.955Z,460
2018-05-11T09:18:29.255Z,425
2018-05-11T09:19:28.944Z,410
2018-05-11T09:20:29.200Z,420
2018-05-11T09:21:29.628Z,425
2018-05-11T09:22:29.189Z,435
2018-05-11T09:23:28.408Z,440
2018-05-11T09:24:28.671Z,450
2018-05-11T09:25:28.664Z,450
2018-05-11T09:26:28.656Z,455
2018-05-11T09:27:28.933Z,455
2018-05-11T09:28:28.906Z,450
2018-05-11T09:29:29.172Z,445
2018-05-11T09:30:28.893Z,445
2018-05-11T09:31:29.164Z,445
2018-05-11T09:32:28.887Z,445
2018-05-11T09:33:29.145Z,440
2018-05-11T09:34:28.876Z,435
2018-05-11T09:35:28.876Z,410
2018-05-11T09:36:28.876Z,380
2018-05-11T09:37:29.168Z,350
2018-05-11T09:38:28.599Z,315
2018-05-11T09:39:29.390Z,295
2018-05-11T09:40:28.591Z,290
2018-05-11T09:41:28.860Z,295
2018-05-11T09:42:28.837Z,300
2018-05-11T09:43:28.845Z,300
2018-05-11T09:44:28.572Z,295
2018-05-11T09:45:28.572Z,285
2018-05-11T09:46:29.086Z,275
2018-05-11T09:47:28.572Z,270
2018-05-11T09:48:29.094Z,265
2018-05-11T09:49:28.569Z,270
2018-05-11T09:50:28.907Z,280
2018-05-11T09:51:28.803Z,285
2018-05-11T09:52:28.810Z,290
2018-05-11T09:53:28.279Z,290
2018-05-11T09:54:28.532Z,295
2018-05-11T09:55:28.790Z,300
2018-05-11T09:56:28.521Z,295
2018-05-11T09:57:29.032Z,275
2018-05-11T09:58:28.774Z,270
2018-05-11T09:59:28.767Z,265
2018-05-11T10:00:28.787Z,270
2018-05-11T10:01:28.756Z,270
2018-05-11T10:02:28.493Z,265
2018-05-11T10:03:28.502Z,265
2018-05-11T10:04:28.486Z,270
2018-05-11T10:05:28.997Z,270
2018-05-11T10:06:29.002Z,280
2018-05-11T10:07:28.730Z,290
2018-05-11T10:08:28.720Z,300
2018-05-11T10:09:28.759Z,315
2018-05-11T10:10:28.737Z,325
2018-05-11T10:11:28.976Z,335
2018-05-11T10:12:28.446Z,335
2018-05-11T10:13:28.721Z,335
2018-05-11T10:14:28.963Z,335
2018-05-11T10:15:28.693Z,335
2018-05-11T10:16:28.956Z,340
2018-05-11T10:17:28.424Z,340
2018-05-11T10:18:28.673Z,330
2018-05-11T10:19:28.412Z,330
2018-05-11T10:20:28.414Z,340
2018-05-11T10:21:28.163Z,350
2018-05-11T10:22:28.402Z,370
2018-05-11T10:23:28.395Z,400
2018-05-11T10:24:28.387Z,415
2018-05-11T10:25:28.639Z,425
2018-05-11T10:26:28.858Z,430
2018-05-11T10:27:28.644Z,430
2018-05-11T10:28:28.895Z,435
2018-05-11T10:29:28.363Z,450
2018-05-11T10:30:28.626Z,465
2018-05-11T10:31:28.871Z,470
2018-05-11T10:32:28.117Z,470
2018-05-11T10:33:28.608Z,445
2018-05-11T10:34:28.544Z,430
2018-05-11T10:35:28.663Z,410
2018-05-11T10:36:28.845Z,390
2018-05-11T10:37:28.589Z,375
2018-05-11T10:38:28.845Z,375
2018-05-11T10:39:28.875Z,380
2018-05-11T10:40:28.849Z,390
2018-05-11T10:41:28.844Z,395
2018-05-11T10:42:28.617Z,385
2018-05-11T10:43:28.818Z,355
2018-05-11T10:44:28.579Z,325
2018-05-11T10:45:28.814Z,300
2018-05-11T10:46:28.561Z,280
2018-05-11T10:47:28.818Z,265
2018-05-11T10:48:28.960Z,245
2018-05-11T10:49:28.648Z,240
2018-05-11T10:50:28.610Z,240
2018-05-11T10:51:28.571Z,235
2018-05-11T10:52:28.523Z,230
2018-05-11T10:53:28.791Z,230
2018-05-11T10:54:28.539Z,225
2018-05-11T10:55:28.260Z,225
2018-05-11T10:56:28.517Z,225
2018-05-11T10:57:28.272Z,230
2018-05-11T10:58:28.516Z,230
2018-05-11T10:59:28.513Z,235
2018-05-11T11:00:28.821Z,230
2018-05-11T11:01:28.500Z,230
2018-05-11T11:02:27.745Z,235
2018-05-11T11:03:28.748Z,250
2018-05-11T11:04:28.754Z,275
2018-05-11T11:05:28.484Z,300
2018-05-11T11:06:28.523Z,345
2018-05-11T11:07:28.735Z,400
2018-05-11T11:08:28.215Z,450
2018-05-11T11:09:28.718Z,495
2018-05-11T11:10:28.717Z,505
2018-05-11T11:11:28.808Z,495
2018-05-11T11:12:28.451Z,485
2018-05-11T11:13:28.534Z,480
2018-05-11T11:14:28.197Z,470
2018-05-11T11:15:28.433Z,480
2018-05-11T11:16:28.694Z,480
2018-05-11T11:17:28.686Z,500
2018-05-11T11:18:28.682Z,525
2018-05-11T11:19:28.678Z,550
2018-05-11T11:20:28.414Z,575
2018-05-11T11:21:28.297Z,590
2018-05-11T11:22:28.665Z,600
2018-05-11T11:23:28.153Z,600
2018-05-11T11:24:28.149Z,580
2018-05-11T11:25:28.235Z,570
2018-05-11T11:26:28.409Z,535
2018-05-11T11:27:28.663Z,470
2018-05-11T11:28:28.619Z,405
2018-05-11T11:29:28.130Z,370
2018-05-11T11:30:28.122Z,335
2018-05-11T11:31:28.120Z,320
2018-05-11T11:32:28.117Z,345
2018-05-11T11:33:28.127Z,395
2018-05-11T11:34:28.892Z,425
2018-05-11T11:35:28.623Z,455
2018-05-11T11:36:28.116Z,460
2018-05-11T11:37:27.844Z,460
2018-05-11T11:38:28.621Z,460
2018-05-11T11:39:28.648Z,430
2018-05-11T11:40:28.468Z,425
2018-05-11T11:41:28.095Z,445
2018-05-11T11:42:28.610Z,455
2018-05-11T11:43:28.102Z,485
2018-05-11T11:44:28.101Z,485
2018-05-11T11:45:28.085Z,485
2018-05-11T11:46:28.168Z,470
2018-05-11T11:47:28.676Z,475
2018-05-11T11:48:28.362Z,480
2018-05-11T11:49:27.816Z,485
2018-05-11T11:50:28.606Z,480
2018-05-11T11:51:28.334Z,465
2018-05-11T11:52:28.324Z,450
2018-05-11T11:53:28.415Z,445
2018-05-11T11:54:28.519Z,450
2018-05-11T11:55:28.347Z,460
2018-05-11T11:56:28.653Z,475
2018-05-11T11:57:28.057Z,500
2018-05-11T11:58:27.794Z,525
2018-05-11T11:59:27.790Z,540
2018-05-11T12:00:28.569Z,545
2018-05-11T12:01:28.052Z,545
2018-05-11T12:02:28.304Z,540
2018-05-11T12:03:28.542Z,515
2018-05-11T12:04:28.608Z,490
2018-05-11T12:05:28.317Z,475
2018-05-11T12:06:28.553Z,485
2018-05-11T12:07:28.354Z,495
2018-05-11T12:08:28.287Z,520
2018-05-11T12:09:28.553Z,540
2018-05-11T12:10:28.298Z,550
2018-05-11T12:11:28.034Z,550
2018-05-11T12:12:28.029Z,555
2018-05-11T12:13:28.362Z,545
2018-05-11T12:14:28.533Z,535
2018-05-11T12:15:28.530Z,520
2018-05-11T12:16:28.275Z,520
2018-05-11T12:17:28.020Z,520
2018-05-11T12:18:28.016Z,520
2018-05-11T12:19:28.290Z,520
2018-05-11T12:20:28.295Z,490
2018-05-11T12:21:28.281Z,470
2018-05-11T12:22:27.749Z,460
2018-05-11T12:23:28.010Z,460
2018-05-11T12:24:28.524Z,470
2018-05-11T12:25:28.262Z,480
2018-05-11T12:26:29.051Z,475
2018-05-11T12:27:28.004Z,465
2018-05-11T12:28:28.514Z,470
2018-05-11T12:29:28.266Z,495
2018-05-11T12:30:28.615Z,520
2018-05-11T12:31:28.004Z,540
2018-05-11T12:32:28.508Z,535
2018-05-11T12:33:28.528Z,530
2018-05-11T12:34:28.269Z,530
2018-05-11T12:35:28.507Z,520
2018-05-11T12:36:28.736Z,480
2018-05-11T12:37:28.275Z,475
2018-05-11T12:38:27.741Z,485
2018-05-11T12:39:27.728Z,475
2018-05-11T12:40:28.502Z,465
2018-05-11T12:41:27.723Z,455
2018-05-11T12:42:27.722Z,435
2018-05-11T12:43:28.238Z,410
2018-05-11T12:44:28.247Z,395
2018-05-11T12:45:28.509Z,390
2018-05-11T12:46:28.244Z,395
2018-05-11T12:47:28.234Z,400
2018-05-11T12:48:28.178Z,420
2018-05-11T12:49:27.988Z,440
2018-05-11T12:50:27.710Z,470
2018-05-11T12:51:28.554Z,485
2018-05-11T12:52:27.735Z,495
2018-05-11T12:53:28.489Z,485
2018-05-11T12:54:27.977Z,470
2018-05-11T12:55:28.258Z,455
2018-05-11T12:56:27.712Z,435
2018-05-11T12:57:28.219Z,420
2018-05-11T12:58:28.225Z,400
2018-05-11T12:59:27.704Z,380
2018-05-11T13:00:27.723Z,365
2018-05-11T13:01:28.563Z,355
2018-05-11T13:02:28.475Z,360
2018-05-11T13:03:27.957Z,365
2018-05-11T13:04:28.000Z,375
2018-05-11T13:05:28.249Z,395
2018-05-11T13:06:28.206Z,410
2018-05-11T13:07:28.584Z,430
2018-05-11T13:08:28.477Z,445
2018-05-11T13:09:28.234Z,460
2018-05-11T13:10:28.466Z,475
2018-05-11T13:11:28.517Z,490
2018-05-11T13:12:28.464Z,510
2018-05-11T13:13:28.490Z,530
2018-05-11T13:14:28.484Z,515
2018-05-11T13:15:28.197Z,500
2018-05-11T13:16:28.473Z,520
2018-05-11T13:17:28.199Z,535
2018-05-11T13:18:28.051Z,520
2018-05-11T13:19:28.186Z,515
2018-05-11T13:20:28.642Z,515
2018-05-11T13:21:28.667Z,490
2018-05-11T13:22:27.876Z,485
2018-05-11T13:23:28.456Z,475
2018-05-11T13:24:28.441Z,425
2018-05-11T13:25:28.457Z,395
2018-05-11T13:26:28.182Z,365
2018-05-11T13:27:28.479Z,335
2018-05-11T13:28:27.682Z,330
2018-05-11T13:29:28.178Z,360
2018-05-11T13:30:28.273Z,400
2018-05-11T13:31:28.414Z,415
2018-05-11T13:32:28.452Z,375
2018-05-11T13:33:28.437Z,365
2018-05-11T13:34:28.168Z,375
2018-05-11T13:35:28.428Z,360
2018-05-11T13:36:28.180Z,360
2018-05-11T13:37:28.169Z,350
2018-05-11T13:38:28.181Z,355
2018-05-11T13:39:27.971Z,360
2018-05-11T13:40:28.171Z,370
2018-05-11T13:41:28.174Z,375
2018-05-11T13:42:28.435Z,365
2018-05-11T13:43:28.158Z,335
2018-05-11T13:44:28.429Z,305
2018-05-11T13:45:28.166Z,300
2018-05-11T13:46:27.895Z,310
2018-05-11T13:47:28.171Z,345
2018-05-11T13:48:28.995Z,380
2018-05-11T13:49:28.168Z,400
2018-05-11T13:50:27.901Z,395
2018-05-11T13:51:28.150Z,390
2018-05-11T13:52:27.884Z,360
2018-05-11T13:53:28.137Z,350
2018-05-11T13:54:27.883Z,360
2018-05-11T13:55:27.874Z,365
2018-05-11T13:56:28.670Z,335
2018-05-11T13:57:27.875Z,300
2018-05-11T13:58:28.134Z,270
2018-05-11T13:59:28.401Z,250
2018-05-11T14:00:28.125Z,230
2018-05-11T14:01:27.612Z,225
2018-05-11T14:02:28.405Z,235
2018-05-11T14:03:28.218Z,250
2018-05-11T14:04:28.124Z,290
2018-05-11T14:05:28.117Z,300
2018-05-11T14:06:28.380Z,310
2018-05-11T14:07:27.598Z,315
2018-05-11T14:08:28.129Z,320